Farmersville's Hourly Summary for Thursday, May 10, 2018
Hour Temp
(f)
RH
(%)
Solar Rad.
(MJ/m2)
Rainfall
(in)
Wind
(mph)
5/10/2018 12:00 AM 71 62 0 0 1.86
5/10/2018 1:00 AM 69 64 0 0 1.48
5/10/2018 2:00 AM 69 62 0 0 1.92
5/10/2018 3:00 AM 68 62 0 0 1.05
5/10/2018 4:00 AM 65 66 0 0 0.74
5/10/2018 5:00 AM 63 72 0 0 0.19
5/10/2018 6:00 AM 62 75 0 0 0.5
5/10/2018 7:00 AM 61 78 0.02 0 1.36
5/10/2018 8:00 AM 63 79 0.38 0 3.28
5/10/2018 9:00 AM 67 78 0.97 0 4.79
5/10/2018 10:00 AM 70 71 0.65 0 5.67
5/10/2018 11:00 AM 73 61 2.15 0 3.85
5/10/2018 12:00 PM 76 51 2.75 0 5.67
5/10/2018 1:00 PM 78 47 3 0 6.79
5/10/2018 2:00 PM 80 46 2.94 0 6.21
5/10/2018 3:00 PM 81 47 2.67 0 5.74
5/10/2018 4:00 PM 82 46 2.2 0 5.68
5/10/2018 5:00 PM 83 43 2.14 0 5.31
5/10/2018 6:00 PM 82 44 1.55 0 5.9
5/10/2018 7:00 PM 81 46 0.86 0 5.96
5/10/2018 8:00 PM 79 50 0.29 0 4.07
5/10/2018 9:00 PM 75 55 0.01 0 2.23
5/10/2018 10:00 PM 73 61 0 0 2.37
5/10/2018 11:00 PM 72 64 0 0 2.5
Data Summary 72 59 22.58 0.00 3.55